Barco De Perros — WDD9827 — position and weather

sailwx.info

Track history (hours):
 
Tides and Currents Weather Stations Pressure Air Temp Water Temp Dewpoint Dewpoint Depression Visibility Wind Speed Wind Dir Waves Ship Positions

Barco De Perros

Owner: Jumbo Alexander, LLC, newport Beach, CA. More information available from US FCC via Universal Licensing System.

Last reported at 2018-Mar-18 23:57 UTC. Time now 2018-Apr-25 16:36 UTC.
Position N 09°12' W 079°54'.
Warning: this ship's position is 37 days out of date.

; draft 3 m.

Type: Pleasure craft. MMSI: 367316860.

Date/timePositionNaut miles runAvg speedWind from/ knotsBaromVisibWave heightAir tempDewpointWater temp
2018-Mar-18 23:57N 09°12' W 079°54'4 9.7
2018-Mar-18 23:30N 09°16' W 079°55'0 0.9
2018-Mar-18 23:00N 09°16' W 079°55'0 0.4
2018-Mar-18 22:30N 09°17' W 079°55'1 1.2
2018-Mar-18 22:00N 09°17' W 079°55'1 2.7
2018-Mar-18 21:30N 09°19' W 079°55'2 3.6
2018-Mar-18 21:01N 09°20' W 079°55'0 0.5
2018-Mar-18 20:30N 09°21' W 079°55'2 3.8
2018-Mar-18 20:00N 09°22' W 079°56'1 1.9
2018-Mar-18 19:31N 09°22' W 079°57'0 0.0
2018-Mar-18 19:00N 09°22' W 079°57'0 0.0
2018-Mar-18 18:30N 09°22' W 079°57'0 0.0
2018-Mar-18 18:01N 09°22' W 079°57'0 0.0
2018-Mar-18 17:30N 09°22' W 079°57'0 0.0
2018-Mar-18 17:01N 09°22' W 079°57'0 0.0
2018-Mar-18 16:30N 09°22' W 079°57'0 0.0
2018-Mar-18 16:01N 09°22' W 079°57'0 0.0
2018-Mar-18 15:31N 09°22' W 079°57'0 0.0
2018-Mar-18 15:00N 09°22' W 079°57'0 0.0
2018-Mar-18 14:31N 09°22' W 079°57'0 0.0
2018-Mar-18 14:00N 09°22' W 079°57'0 0.0
2018-Mar-18 13:30N 09°22' W 079°57'0 0.0
2018-Mar-18 13:00N 09°22' W 079°57'0 0.0
2018-Mar-18 12:31N 09°22' W 079°57'0 0.0
2018-Mar-18 12:00N 09°22' W 079°57'0 0.0
2018-Mar-18 11:31N 09°22' W 079°57'0 0.0
2018-Mar-18 11:01N 09°22' W 079°57'0 0.0
2018-Mar-18 10:30N 09°22' W 079°57'0 0.0
2018-Mar-18 10:01N 09°22' W 079°57'0 0.0
2018-Mar-18 09:31N 09°22' W 079°57'0 0.0
2018-Mar-18 09:00N 09°22' W 079°57'0 0.0
2018-Mar-18 08:30N 09°22' W 079°57'0 0.0
2018-Mar-18 08:00N 09°22' W 079°57'0 0.0
2018-Mar-18 07:30N 09°22' W 079°57'0 0.0
2018-Mar-18 07:01N 09°22' W 079°57'0 0.0
2018-Mar-18 06:29N 09°22' W 079°57'0 0.0
2018-Mar-18 06:00N 09°22' W 079°57'0 0.0
2018-Mar-18 05:30N 09°22' W 079°57'0 0.0
2018-Mar-18 05:01N 09°22' W 079°57'0 0.0
2018-Mar-18 04:31N 09°22' W 079°57'0 0.0
2018-Mar-18 04:01N 09°22' W 079°57'0 0.0
2018-Mar-18 03:31N 09°22' W 079°57'0 0.0
2018-Mar-18 03:00N 09°22' W 079°57'0 0.0
2018-Mar-18 02:30N 09°22' W 079°57'0 0.0
2018-Mar-18 02:01N 09°22' W 079°57'0 0.0
2018-Mar-18 01:30N 09°22' W 079°57'0 0.0
2018-Mar-18 01:01N 09°22' W 079°57'0 0.0
2018-Mar-18 00:30N 09°22' W 079°57'0 0.0
2018-Mar-18 00:01N 09°22' W 079°57'0 0.0
2018-Mar-17 23:30N 09°22' W 079°57'0 0.0
2018-Mar-17 23:01N 09°22' W 079°57'3 5.7
2018-Mar-17 22:31N 09°20' W 079°55'3 6.2
2018-Mar-17 21:59N 09°17' W 079°55'0 0.6
2018-Mar-17 21:31N 09°16' W 079°55'0 0.2
2018-Mar-17 21:01N 09°16' W 079°55'0 0.0
2018-Mar-17 20:30N 09°16' W 079°55'0 0.7
2018-Mar-17 20:00N 09°16' W 079°55'1 1.3
2018-Mar-17 19:30N 09°15' W 079°55'  
Track history (hours):
 
Tides and Currents Weather Stations Pressure Air Temp Water Temp Dewpoint Dewpoint Depression Visibility Wind Speed Wind Dir Waves Ship Positions

Barco De Perros

Owner: Jumbo Alexander, LLC, newport Beach, CA. More information available from US FCC via Universal Licensing System.

Last reported at 2018-Mar-18 23:57 UTC. Time now 2018-Apr-25 16:36 UTC.
Position N 09°12' W 079°54'.
Warning: this ship's position is 37 days out of date.

; draft 3 m.

Type: Pleasure craft. MMSI: 367316860.

Date/timePositionNaut miles runAvg speedWind from/ knotsBaromVisibWave heightAir tempDewpointWater temp
2018-Mar-18 23:57N 09°12' W 079°54'4 9.7
2018-Mar-18 23:30N 09°16' W 079°55'0 0.9
2018-Mar-18 23:00N 09°16' W 079°55'0 0.4
2018-Mar-18 22:30N 09°17' W 079°55'1 1.2
2018-Mar-18 22:00N 09°17' W 079°55'1 2.7
2018-Mar-18 21:30N 09°19' W 079°55'2 3.6
2018-Mar-18 21:01N 09°20' W 079°55'0 0.5
2018-Mar-18 20:30N 09°21' W 079°55'2 3.8
2018-Mar-18 20:00N 09°22' W 079°56'1 1.9
2018-Mar-18 19:31N 09°22' W 079°57'0 0.0
2018-Mar-18 19:00N 09°22' W 079°57'0 0.0
2018-Mar-18 18:30N 09°22' W 079°57'0 0.0
2018-Mar-18 18:01N 09°22' W 079°57'0 0.0
2018-Mar-18 17:30N 09°22' W 079°57'0 0.0
2018-Mar-18 17:01N 09°22' W 079°57'0 0.0
2018-Mar-18 16:30N 09°22' W 079°57'0 0.0
2018-Mar-18 16:01N 09°22' W 079°57'0 0.0
2018-Mar-18 15:31N 09°22' W 079°57'0 0.0
2018-Mar-18 15:00N 09°22' W 079°57'0 0.0
2018-Mar-18 14:31N 09°22' W 079°57'0 0.0
2018-Mar-18 14:00N 09°22' W 079°57'0 0.0
2018-Mar-18 13:30N 09°22' W 079°57'0 0.0
2018-Mar-18 13:00N 09°22' W 079°57'0 0.0
2018-Mar-18 12:31N 09°22' W 079°57'0 0.0
2018-Mar-18 12:00N 09°22' W 079°57'0 0.0
2018-Mar-18 11:31N 09°22' W 079°57'0 0.0
2018-Mar-18 11:01N 09°22' W 079°57'0 0.0
2018-Mar-18 10:30N 09°22' W 079°57'0 0.0
2018-Mar-18 10:01N 09°22' W 079°57'0 0.0
2018-Mar-18 09:31N 09°22' W 079°57'0 0.0
2018-Mar-18 09:00N 09°22' W 079°57'0 0.0
2018-Mar-18 08:30N 09°22' W 079°57'0 0.0
2018-Mar-18 08:00N 09°22' W 079°57'0 0.0
2018-Mar-18 07:30N 09°22' W 079°57'0 0.0
2018-Mar-18 07:01N 09°22' W 079°57'0 0.0
2018-Mar-18 06:29N 09°22' W 079°57'0 0.0
2018-Mar-18 06:00N 09°22' W 079°57'0 0.0
2018-Mar-18 05:30N 09°22' W 079°57'0 0.0
2018-Mar-18 05:01N 09°22' W 079°57'0 0.0
2018-Mar-18 04:31N 09°22' W 079°57'0 0.0
2018-Mar-18 04:01N 09°22' W 079°57'0 0.0
2018-Mar-18 03:31N 09°22' W 079°57'0 0.0
2018-Mar-18 03:00N 09°22' W 079°57'0 0.0
2018-Mar-18 02:30N 09°22' W 079°57'0 0.0
2018-Mar-18 02:01N 09°22' W 079°57'0 0.0
2018-Mar-18 01:30N 09°22' W 079°57'0 0.0
2018-Mar-18 01:01N 09°22' W 079°57'0 0.0
2018-Mar-18 00:30N 09°22' W 079°57'0 0.0
2018-Mar-18 00:01N 09°22' W 079°57'0 0.0
2018-Mar-17 23:30N 09°22' W 079°57'0 0.0
2018-Mar-17 23:01N 09°22' W 079°57'3 5.7
2018-Mar-17 22:31N 09°20' W 079°55'3 6.2
2018-Mar-17 21:59N 09°17' W 079°55'0 0.6
2018-Mar-17 21:31N 09°16' W 079°55'0 0.2
2018-Mar-17 21:01N 09°16' W 079°55'0 0.0
2018-Mar-17 20:30N 09°16' W 079°55'0 0.7
2018-Mar-17 20:00N 09°16' W 079°55'1 1.3
2018-Mar-17 19:30N 09°15' W 079°55'  

Dump ship's entire track history